sensor_id;sensor_type;location;lat;lon;timestamp;temperature;humidity
35127;DHT22;21300;52.006;5.798;2023-03-13T00:00:52;7.00;99.90
35127;DHT22;21300;52.006;5.798;2023-03-13T00:03:18;7.00;99.90
35127;DHT22;21300;52.006;5.798;2023-03-13T00:05:44;7.00;99.90
35127;DHT22;21300;52.006;5.798;2023-03-13T00:08:10;7.00;99.90
35127;DHT22;21300;52.006;5.798;2023-03-13T00:10:36;7.00;99.90
35127;DHT22;21300;52.006;5.798;2023-03-13T00:13:03;7.00;99.90
35127;DHT22;21300;52.006;5.798;2023-03-13T00:15:28;7.00;99.90
35127;DHT22;21300;52.006;5.798;2023-03-13T00:17:54;7.00;99.90
35127;DHT22;21300;52.006;5.798;2023-03-13T00:20:19;7.00;99.90
35127;DHT22;21300;52.006;5.798;2023-03-13T00:22:45;7.00;99.90
35127;DHT22;21300;52.006;5.798;2023-03-13T00:25:10;7.00;99.90
35127;DHT22;21300;52.006;5.798;2023-03-13T00:27:36;7.00;99.90
35127;DHT22;21300;52.006;5.798;2023-03-13T00:30:01;7.00;99.90
35127;DHT22;21300;52.006;5.798;2023-03-13T00:32:27;7.00;99.90
35127;DHT22;21300;52.006;5.798;2023-03-13T00:34:53;7.00;99.90
35127;DHT22;21300;52.006;5.798;2023-03-13T00:37:18;7.00;99.90
35127;DHT22;21300;52.006;5.798;2023-03-13T00:39:44;7.00;99.90
35127;DHT22;21300;52.006;5.798;2023-03-13T00:42:09;7.00;99.90
35127;DHT22;21300;52.006;5.798;2023-03-13T00:44:35;7.00;99.90
35127;DHT22;21300;52.006;5.798;2023-03-13T00:47:00;7.00;99.90
35127;DHT22;21300;52.006;5.798;2023-03-13T00:49:26;7.00;99.90
35127;DHT22;21300;52.006;5.798;2023-03-13T00:51:52;7.00;99.90
35127;DHT22;21300;52.006;5.798;2023-03-13T00:54:17;7.00;99.90
35127;DHT22;21300;52.006;5.798;2023-03-13T00:56:43;7.00;99.90
35127;DHT22;21300;52.006;5.798;2023-03-13T00:59:08;7.00;99.90
35127;DHT22;21300;52.006;5.798;2023-03-13T01:01:35;7.00;99.90
35127;DHT22;21300;52.006;5.798;2023-03-13T01:04:06;7.00;99.90
35127;DHT22;21300;52.006;5.798;2023-03-13T01:06:34;7.00;99.90
35127;DHT22;21300;52.006;5.798;2023-03-13T01:09:00;7.00;99.90
35127;DHT22;21300;52.006;5.798;2023-03-13T01:11:29;7.00;99.90
35127;DHT22;21300;52.006;5.798;2023-03-13T01:14:01;7.00;99.90
35127;DHT22;21300;52.006;5.798;2023-03-13T01:16:29;7.00;99.90
35127;DHT22;21300;52.006;5.798;2023-03-13T01:18:57;7.00;99.90
35127;DHT22;21300;52.006;5.798;2023-03-13T01:21:24;7.00;99.90
35127;DHT22;21300;52.006;5.798;2023-03-13T01:23:51;7.10;99.90
35127;DHT22;21300;52.006;5.798;2023-03-13T01:26:17;7.00;99.90
35127;DHT22;21300;52.006;5.798;2023-03-13T01:28:43;7.00;99.90
35127;DHT22;21300;52.006;5.798;2023-03-13T01:33:40;7.10;99.90
35127;DHT22;21300;52.006;5.798;2023-03-13T01:36:06;7.10;99.90
35127;DHT22;21300;52.006;5.798;2023-03-13T01:38:32;7.10;99.90
35127;DHT22;21300;52.006;5.798;2023-03-13T01:40:57;7.10;99.90
35127;DHT22;21300;52.006;5.798;2023-03-13T01:43:26;7.10;99.90
35127;DHT22;21300;52.006;5.798;2023-03-13T01:48:59;7.10;99.90
35127;DHT22;21300;52.006;5.798;2023-03-13T01:51:36;7.10;99.90
35127;DHT22;21300;52.006;5.798;2023-03-13T01:59:14;7.10;99.90
35127;DHT22;21300;52.006;5.798;2023-03-13T02:01:41;7.10;99.90
35127;DHT22;21300;52.006;5.798;2023-03-13T02:04:08;7.10;99.90
35127;DHT22;21300;52.006;5.798;2023-03-13T02:06:36;7.10;99.90
35127;DHT22;21300;52.006;5.798;2023-03-13T02:09:08;7.10;99.90
35127;DHT22;21300;52.006;5.798;2023-03-13T02:12:07;7.10;99.90
35127;DHT22;21300;52.006;5.798;2023-03-13T02:14:36;7.10;99.90
35127;DHT22;21300;52.006;5.798;2023-03-13T02:17:04;7.20;99.90
35127;DHT22;21300;52.006;5.798;2023-03-13T02:19:40;7.10;99.90
35127;DHT22;21300;52.006;5.798;2023-03-13T02:22:34;7.20;99.90
35127;DHT22;21300;52.006;5.798;2023-03-13T02:27:59;7.10;99.90
35127;DHT22;21300;52.006;5.798;2023-03-13T02:30:26;7.20;99.90
35127;DHT22;21300;52.006;5.798;2023-03-13T02:32:52;7.20;99.90
35127;DHT22;21300;52.006;5.798;2023-03-13T02:35:21;7.20;99.90
35127;DHT22;21300;52.006;5.798;2023-03-13T02:37:50;7.20;99.90
35127;DHT22;21300;52.006;5.798;2023-03-13T02:40:21;7.20;99.90
35127;DHT22;21300;52.006;5.798;2023-03-13T02:42:49;7.20;99.90
35127;DHT22;21300;52.006;5.798;2023-03-13T02:45:16;7.20;99.90
35127;DHT22;21300;52.006;5.798;2023-03-13T02:47:42;7.20;99.90
35127;DHT22;21300;52.006;5.798;2023-03-13T02:50:08;7.20;99.90
35127;DHT22;21300;52.006;5.798;2023-03-13T02:52:48;7.20;99.90
35127;DHT22;21300;52.006;5.798;2023-03-13T02:55:29;7.20;99.90
35127;DHT22;21300;52.006;5.798;2023-03-13T02:58:13;7.30;99.90
35127;DHT22;21300;52.006;5.798;2023-03-13T03:00:39;7.30;99.90
35127;DHT22;21300;52.006;5.798;2023-03-13T03:03:04;7.30;99.90
35127;DHT22;21300;52.006;5.798;2023-03-13T03:05:30;7.30;99.90
35127;DHT22;21300;52.006;5.798;2023-03-13T03:07:55;7.30;99.90
35127;DHT22;21300;52.006;5.798;2023-03-13T03:10:21;7.30;99.90
35127;DHT22;21300;52.006;5.798;2023-03-13T03:12:47;7.30;99.90
35127;DHT22;21300;52.006;5.798;2023-03-13T03:15:12;7.30;99.90
35127;DHT22;21300;52.006;5.798;2023-03-13T03:17:38;7.30;99.90
35127;DHT22;21300;52.006;5.798;2023-03-13T03:20:04;7.30;99.90
35127;DHT22;21300;52.006;5.798;2023-03-13T03:22:36;7.30;99.90
35127;DHT22;21300;52.006;5.798;2023-03-13T03:27:47;7.40;99.90
35127;DHT22;21300;52.006;5.798;2023-03-13T03:30:13;7.40;99.90
35127;DHT22;21300;52.006;5.798;2023-03-13T03:32:39;7.40;99.90
35127;DHT22;21300;52.006;5.798;2023-03-13T03:35:04;7.40;99.90
35127;DHT22;21300;52.006;5.798;2023-03-13T03:37:30;7.40;99.90
35127;DHT22;21300;52.006;5.798;2023-03-13T03:39:56;7.40;99.90
35127;DHT22;21300;52.006;5.798;2023-03-13T03:42:21;7.40;99.90
35127;DHT22;21300;52.006;5.798;2023-03-13T03:44:47;7.40;99.90
35127;DHT22;21300;52.006;5.798;2023-03-13T03:47:13;7.50;99.90
35127;DHT22;21300;52.006;5.798;2023-03-13T03:49:38;7.50;99.90
35127;DHT22;21300;52.006;5.798;2023-03-13T03:52:04;7.50;99.90
35127;DHT22;21300;52.006;5.798;2023-03-13T03:54:30;7.50;99.90
35127;DHT22;21300;52.006;5.798;2023-03-13T03:56:55;7.50;99.90
35127;DHT22;21300;52.006;5.798;2023-03-13T03:59:21;7.50;99.90
35127;DHT22;21300;52.006;5.798;2023-03-13T04:01:46;7.60;99.90
35127;DHT22;21300;52.006;5.798;2023-03-13T04:04:12;7.50;99.90
35127;DHT22;21300;52.006;5.798;2023-03-13T04:06:38;7.60;99.90
35127;DHT22;21300;52.006;5.798;2023-03-13T04:09:03;7.60;99.90
35127;DHT22;21300;52.006;5.798;2023-03-13T04:11:47;7.60;99.90
35127;DHT22;21300;52.006;5.798;2023-03-13T04:14:13;7.60;99.90
35127;DHT22;21300;52.006;5.798;2023-03-13T04:16:39;7.60;99.90
35127;DHT22;21300;52.006;5.798;2023-03-13T04:19:04;7.60;99.90
35127;DHT22;21300;52.006;5.798;2023-03-13T04:21:30;7.60;99.90
35127;DHT22;21300;52.006;5.798;2023-03-13T04:26:40;7.60;99.90
35127;DHT22;21300;52.006;5.798;2023-03-13T04:29:05;7.70;99.90
35127;DHT22;21300;52.006;5.798;2023-03-13T04:31:31;7.70;99.90
35127;DHT22;21300;52.006;5.798;2023-03-13T04:33:57;7.70;99.90
35127;DHT22;21300;52.006;5.798;2023-03-13T04:36:23;7.70;99.90
35127;DHT22;21300;52.006;5.798;2023-03-13T04:38:49;7.70;99.90
35127;DHT22;21300;52.006;5.798;2023-03-13T04:41:14;7.70;99.90
35127;DHT22;21300;52.006;5.798;2023-03-13T04:43:40;7.70;99.90
35127;DHT22;21300;52.006;5.798;2023-03-13T04:46:05;7.80;99.90
35127;DHT22;21300;52.006;5.798;2023-03-13T04:48:31;7.80;99.90
35127;DHT22;21300;52.006;5.798;2023-03-13T04:51:15;7.80;99.90
35127;DHT22;21300;52.006;5.798;2023-03-13T04:53:40;7.80;99.90
35127;DHT22;21300;52.006;5.798;2023-03-13T04:56:06;7.80;99.90
35127;DHT22;21300;52.006;5.798;2023-03-13T04:58:32;7.80;99.90
35127;DHT22;21300;52.006;5.798;2023-03-13T05:00:57;7.80;99.90
35127;DHT22;21300;52.006;5.798;2023-03-13T05:03:23;7.90;99.90
35127;DHT22;21300;52.006;5.798;2023-03-13T05:05:49;7.90;99.90
35127;DHT22;21300;52.006;5.798;2023-03-13T05:08:14;7.90;99.90
35127;DHT22;21300;52.006;5.798;2023-03-13T05:10:43;7.90;99.90
35127;DHT22;21300;52.006;5.798;2023-03-13T05:13:09;7.90;99.90
35127;DHT22;21300;52.006;5.798;2023-03-13T05:15:34;7.90;99.90
35127;DHT22;21300;52.006;5.798;2023-03-13T05:18:00;7.90;99.90
35127;DHT22;21300;52.006;5.798;2023-03-13T05:20:44;7.90;99.90
35127;DHT22;21300;52.006;5.798;2023-03-13T05:23:10;7.90;99.90
35127;DHT22;21300;52.006;5.798;2023-03-13T05:25:36;8.00;99.90
35127;DHT22;21300;52.006;5.798;2023-03-13T05:28:01;8.00;99.90
35127;DHT22;21300;52.006;5.798;2023-03-13T05:30:27;8.00;99.90
35127;DHT22;21300;52.006;5.798;2023-03-13T05:32:53;8.00;99.90
35127;DHT22;21300;52.006;5.798;2023-03-13T05:35:18;8.00;99.90
35127;DHT22;21300;52.006;5.798;2023-03-13T05:37:44;8.00;99.90
35127;DHT22;21300;52.006;5.798;2023-03-13T05:40:11;8.00;99.90
35127;DHT22;21300;52.006;5.798;2023-03-13T05:42:36;8.00;99.90
35127;DHT22;21300;52.006;5.798;2023-03-13T05:45:02;8.00;99.90
35127;DHT22;21300;52.006;5.798;2023-03-13T05:47:28;8.10;99.90
35127;DHT22;21300;52.006;5.798;2023-03-13T05:49:53;8.10;99.90
35127;DHT22;21300;52.006;5.798;2023-03-13T05:52:19;8.10;99.90
35127;DHT22;21300;52.006;5.798;2023-03-13T05:54:44;8.10;99.90
35127;DHT22;21300;52.006;5.798;2023-03-13T05:57:29;8.10;99.90
35127;DHT22;21300;52.006;5.798;2023-03-13T05:59:54;8.20;99.90
35127;DHT22;21300;52.006;5.798;2023-03-13T06:02:20;8.60;99.90
35127;DHT22;21300;52.006;5.798;2023-03-13T06:04:46;8.60;99.90
35127;DHT22;21300;52.006;5.798;2023-03-13T06:07:12;8.50;99.90
35127;DHT22;21300;52.006;5.798;2023-03-13T06:09:37;8.50;99.90
35127;DHT22;21300;52.006;5.798;2023-03-13T06:12:06;8.50;99.90
35127;DHT22;21300;52.006;5.798;2023-03-13T06:14:31;8.50;99.90
35127;DHT22;21300;52.006;5.798;2023-03-13T06:16:57;8.40;99.90
35127;DHT22;21300;52.006;5.798;2023-03-13T06:19:23;8.40;99.90
35127;DHT22;21300;52.006;5.798;2023-03-13T06:21:49;8.40;99.90
35127;DHT22;21300;52.006;5.798;2023-03-13T06:24:15;8.40;99.90
35127;DHT22;21300;52.006;5.798;2023-03-13T06:26:40;8.40;99.90
35127;DHT22;21300;52.006;5.798;2023-03-13T06:29:06;8.40;99.90
35127;DHT22;21300;52.006;5.798;2023-03-13T06:31:31;8.40;99.90
35127;DHT22;21300;52.006;5.798;2023-03-13T06:33:57;8.40;99.90
35127;DHT22;21300;52.006;5.798;2023-03-13T06:36:23;8.40;99.90
35127;DHT22;21300;52.006;5.798;2023-03-13T06:38:50;8.40;99.90
35127;DHT22;21300;52.006;5.798;2023-03-13T06:41:15;8.40;99.90
35127;DHT22;21300;52.006;5.798;2023-03-13T06:43:41;8.40;99.90
35127;DHT22;21300;52.006;5.798;2023-03-13T06:46:07;8.40;99.90
35127;DHT22;21300;52.006;5.798;2023-03-13T06:51:25;8.50;99.90
35127;DHT22;21300;52.006;5.798;2023-03-13T06:53:51;8.40;99.90
35127;DHT22;21300;52.006;5.798;2023-03-13T06:56:17;8.50;99.90
35127;DHT22;21300;52.006;5.798;2023-03-13T06:58:47;8.50;99.90
35127;DHT22;21300;52.006;5.798;2023-03-13T07:01:13;8.50;99.90
35127;DHT22;21300;52.006;5.798;2023-03-13T07:03:40;8.80;99.90
35127;DHT22;21300;52.006;5.798;2023-03-13T07:06:07;8.90;99.90
35127;DHT22;21300;52.006;5.798;2023-03-13T07:08:34;8.90;99.90
35127;DHT22;21300;52.006;5.798;2023-03-13T07:11:05;8.80;99.90
35127;DHT22;21300;52.006;5.798;2023-03-13T07:13:31;8.80;99.90
35127;DHT22;21300;52.006;5.798;2023-03-13T07:16:01;8.80;99.90
35127;DHT22;21300;52.006;5.798;2023-03-13T07:18:29;8.80;99.90
35127;DHT22;21300;52.006;5.798;2023-03-13T07:20:56;8.80;99.90
35127;DHT22;21300;52.006;5.798;2023-03-13T07:23:24;8.70;99.90
35127;DHT22;21300;52.006;5.798;2023-03-13T07:25:58;8.70;99.90
35127;DHT22;21300;52.006;5.798;2023-03-13T07:28:26;8.70;99.90
35127;DHT22;21300;52.006;5.798;2023-03-13T07:30:52;8.70;99.90
35127;DHT22;21300;52.006;5.798;2023-03-13T07:33:18;8.70;99.90
35127;DHT22;21300;52.006;5.798;2023-03-13T07:35:51;8.80;99.90
35127;DHT22;21300;52.006;5.798;2023-03-13T07:38:17;9.30;99.90
35127;DHT22;21300;52.006;5.798;2023-03-13T07:40:50;9.60;99.90
35127;DHT22;21300;52.006;5.798;2023-03-13T07:43:17;9.90;99.90
35127;DHT22;21300;52.006;5.798;2023-03-13T07:48:19;10.10;99.90
35127;DHT22;21300;52.006;5.798;2023-03-13T07:50:45;10.20;99.90
35127;DHT22;21300;52.006;5.798;2023-03-13T07:53:11;10.30;99.90
35127;DHT22;21300;52.006;5.798;2023-03-13T07:55:36;10.30;99.90
35127;DHT22;21300;52.006;5.798;2023-03-13T07:58:02;10.30;99.90
35127;DHT22;21300;52.006;5.798;2023-03-13T08:00:28;10.40;99.90
35127;DHT22;21300;52.006;5.798;2023-03-13T08:02:53;10.40;99.90
35127;DHT22;21300;52.006;5.798;2023-03-13T08:05:19;10.40;99.90
35127;DHT22;21300;52.006;5.798;2023-03-13T08:07:44;10.30;99.90
35127;DHT22;21300;52.006;5.798;2023-03-13T08:10:10;10.20;99.90
35127;DHT22;21300;52.006;5.798;2023-03-13T08:12:36;10.10;99.90
35127;DHT22;21300;52.006;5.798;2023-03-13T08:15:01;10.00;99.90
35127;DHT22;21300;52.006;5.798;2023-03-13T08:17:30;9.90;99.90
35127;DHT22;21300;52.006;5.798;2023-03-13T08:19:56;9.80;99.90
35127;DHT22;21300;52.006;5.798;2023-03-13T08:22:21;9.80;99.90
35127;DHT22;21300;52.006;5.798;2023-03-13T08:24:47;9.80;99.90
35127;DHT22;21300;52.006;5.798;2023-03-13T08:27:13;9.80;99.90
35127;DHT22;21300;52.006;5.798;2023-03-13T08:29:38;9.70;99.90
35127;DHT22;21300;52.006;5.798;2023-03-13T08:32:04;9.70;99.90
35127;DHT22;21300;52.006;5.798;2023-03-13T08:34:30;9.70;99.90
35127;DHT22;21300;52.006;5.798;2023-03-13T08:36:55;9.70;99.90
35127;DHT22;21300;52.006;5.798;2023-03-13T08:39:22;9.70;99.90
35127;DHT22;21300;52.006;5.798;2023-03-13T08:41:48;9.70;99.90
35127;DHT22;21300;52.006;5.798;2023-03-13T08:44:16;9.70;99.90
35127;DHT22;21300;52.006;5.798;2023-03-13T08:46:42;9.70;99.90
35127;DHT22;21300;52.006;5.798;2023-03-13T08:49:08;9.70;99.90
35127;DHT22;21300;52.006;5.798;2023-03-13T08:51:35;9.70;99.90
35127;DHT22;21300;52.006;5.798;2023-03-13T08:54:01;9.70;99.90
35127;DHT22;21300;52.006;5.798;2023-03-13T08:56:28;9.70;99.90
35127;DHT22;21300;52.006;5.798;2023-03-13T08:58:56;9.70;99.90
35127;DHT22;21300;52.006;5.798;2023-03-13T09:01:24;9.70;99.90
35127;DHT22;21300;52.006;5.798;2023-03-13T09:03:50;9.70;99.90
35127;DHT22;21300;52.006;5.798;2023-03-13T09:06:16;9.70;99.90
35127;DHT22;21300;52.006;5.798;2023-03-13T09:08:43;9.70;99.90
35127;DHT22;21300;52.006;5.798;2023-03-13T09:11:14;9.70;99.90
35127;DHT22;21300;52.006;5.798;2023-03-13T09:13:48;9.70;99.90
35127;DHT22;21300;52.006;5.798;2023-03-13T09:16:19;9.70;99.90
35127;DHT22;21300;52.006;5.798;2023-03-13T09:18:45;10.00;99.90
35127;DHT22;21300;52.006;5.798;2023-03-13T09:21:14;10.10;99.90
35127;DHT22;21300;52.006;5.798;2023-03-13T09:23:40;10.00;99.90
35127;DHT22;21300;52.006;5.798;2023-03-13T09:26:05;10.00;99.90
35127;DHT22;21300;52.006;5.798;2023-03-13T09:31:24;9.90;99.90
35127;DHT22;21300;52.006;5.798;2023-03-13T09:33:50;10.00;99.90
35127;DHT22;21300;52.006;5.798;2023-03-13T09:36:17;10.00;99.90
35127;DHT22;21300;52.006;5.798;2023-03-13T09:38:43;9.90;99.90
35127;DHT22;21300;52.006;5.798;2023-03-13T09:41:22;10.00;99.90
35127;DHT22;21300;52.006;5.798;2023-03-13T09:46:37;10.00;99.90
35127;DHT22;21300;52.006;5.798;2023-03-13T09:49:11;9.90;99.90
35127;DHT22;21300;52.006;5.798;2023-03-13T09:51:39;10.00;99.90
35127;DHT22;21300;52.006;5.798;2023-03-13T09:54:33;10.00;99.90
35127;DHT22;21300;52.006;5.798;2023-03-13T09:59:56;10.40;99.90
35127;DHT22;21300;52.006;5.798;2023-03-13T10:02:34;10.70;99.90
35127;DHT22;21300;52.006;5.798;2023-03-13T10:05:24;10.70;99.90
35127;DHT22;21300;52.006;5.798;2023-03-13T10:07:55;10.50;99.90
35127;DHT22;21300;52.006;5.798;2023-03-13T10:10:42;10.50;99.90
35127;DHT22;21300;52.006;5.798;2023-03-13T10:13:46;10.40;99.90
35127;DHT22;21300;52.006;5.798;2023-03-13T10:16:30;10.40;99.90
35127;DHT22;21300;52.006;5.798;2023-03-13T10:18:58;10.30;99.90
35127;DHT22;21300;52.006;5.798;2023-03-13T10:21:30;10.40;99.90
35127;DHT22;21300;52.006;5.798;2023-03-13T10:23:58;10.40;99.90
35127;DHT22;21300;52.006;5.798;2023-03-13T10:26:34;10.40;99.90
35127;DHT22;21300;52.006;5.798;2023-03-13T10:31:45;10.70;99.90
35127;DHT22;21300;52.006;5.798;2023-03-13T10:34:13;10.70;99.90
35127;DHT22;21300;52.006;5.798;2023-03-13T10:36:45;10.80;99.90
35127;DHT22;21300;52.006;5.798;2023-03-13T10:39:21;10.80;99.90
35127;DHT22;21300;52.006;5.798;2023-03-13T10:41:50;10.80;99.90
35127;DHT22;21300;52.006;5.798;2023-03-13T10:44:21;10.80;99.90
35127;DHT22;21300;52.006;5.798;2023-03-13T10:46:49;10.70;99.90
35127;DHT22;21300;52.006;5.798;2023-03-13T10:49:22;10.70;99.90
35127;DHT22;21300;52.006;5.798;2023-03-13T10:51:56;10.70;99.90
35127;DHT22;21300;52.006;5.798;2023-03-13T10:54:30;10.70;99.90
35127;DHT22;21300;52.006;5.798;2023-03-13T10:59:48;10.70;99.90
35127;DHT22;21300;52.006;5.798;2023-03-13T11:02:35;10.70;99.90
35127;DHT22;21300;52.006;5.798;2023-03-13T11:07:47;10.80;99.90
35127;DHT22;21300;52.006;5.798;2023-03-13T11:10:25;10.80;99.90
35127;DHT22;21300;52.006;5.798;2023-03-13T11:12:52;10.80;99.90
35127;DHT22;21300;52.006;5.798;2023-03-13T11:15:30;10.80;99.90
35127;DHT22;21300;52.006;5.798;2023-03-13T11:18:05;10.80;99.90
35127;DHT22;21300;52.006;5.798;2023-03-13T11:20:34;10.90;99.90
35127;DHT22;21300;52.006;5.798;2023-03-13T11:23:26;10.90;99.90
35127;DHT22;21300;52.006;5.798;2023-03-13T11:31:31;11.20;99.90
35127;DHT22;21300;52.006;5.798;2023-03-13T11:34:23;11.30;99.90
35127;DHT22;21300;52.006;5.798;2023-03-13T11:37:02;11.70;99.90
35127;DHT22;21300;52.006;5.798;2023-03-13T11:45:15;11.70;99.90
35127;DHT22;21300;52.006;5.798;2023-03-13T11:50:42;11.80;99.90
35127;DHT22;21300;52.006;5.798;2023-03-13T11:56:13;11.80;99.90
35127;DHT22;21300;52.006;5.798;2023-03-13T11:58:52;11.80;99.90
35127;DHT22;21300;52.006;5.798;2023-03-13T12:01:23;11.80;99.90
35127;DHT22;21300;52.006;5.798;2023-03-13T12:03:59;11.80;99.90
35127;DHT22;21300;52.006;5.798;2023-03-13T12:06:29;11.80;99.90
35127;DHT22;21300;52.006;5.798;2023-03-13T12:09:14;11.80;99.90
35127;DHT22;21300;52.006;5.798;2023-03-13T12:12:03;11.80;99.90
35127;DHT22;21300;52.006;5.798;2023-03-13T12:14:38;11.80;99.90
35127;DHT22;21300;52.006;5.798;2023-03-13T12:17:12;11.80;99.90
35127;DHT22;21300;52.006;5.798;2023-03-13T12:19:49;11.90;99.90
35127;DHT22;21300;52.006;5.798;2023-03-13T12:22:30;12.00;99.90
35127;DHT22;21300;52.006;5.798;2023-03-13T12:25:17;11.90;99.90
35127;DHT22;21300;52.006;5.798;2023-03-13T12:27:48;11.90;99.90
35127;DHT22;21300;52.006;5.798;2023-03-13T12:33:25;11.90;99.90
35127;DHT22;21300;52.006;5.798;2023-03-13T12:36:06;12.00;99.90
35127;DHT22;21300;52.006;5.798;2023-03-13T12:41:37;12.00;99.90
35127;DHT22;21300;52.006;5.798;2023-03-13T12:44:10;12.00;99.90
35127;DHT22;21300;52.006;5.798;2023-03-13T12:46:57;12.00;99.90
35127;DHT22;21300;52.006;5.798;2023-03-13T12:50:02;12.00;99.90
35127;DHT22;21300;52.006;5.798;2023-03-13T12:55:32;12.10;99.90
35127;DHT22;21300;52.006;5.798;2023-03-13T13:00:44;12.10;99.90
35127;DHT22;21300;52.006;5.798;2023-03-13T13:03:30;12.10;99.90
35127;DHT22;21300;52.006;5.798;2023-03-13T13:11:37;12.20;99.90
35127;DHT22;21300;52.006;5.798;2023-03-13T13:24:54;12.30;99.90
35127;DHT22;21300;52.006;5.798;2023-03-13T13:32:43;12.60;99.90
35127;DHT22;21300;52.006;5.798;2023-03-13T13:37:34;12.80;99.30
35127;DHT22;21300;52.006;5.798;2023-03-13T13:42:52;13.00;98.40
35127;DHT22;21300;52.006;5.798;2023-03-13T13:45:22;12.80;98.70
35127;DHT22;21300;52.006;5.798;2023-03-13T13:47:51;12.80;98.80
35127;DHT22;21300;52.006;5.798;2023-03-13T13:53:33;12.70;99.30
35127;DHT22;21300;52.006;5.798;2023-03-13T14:01:47;13.00;98.50
35127;DHT22;21300;52.006;5.798;2023-03-13T14:04:35;13.00;98.10
35127;DHT22;21300;52.006;5.798;2023-03-13T14:07:03;13.00;98.40
35127;DHT22;21300;52.006;5.798;2023-03-13T14:12:26;13.00;98.10
35127;DHT22;21300;52.006;5.798;2023-03-13T14:15:18;13.00;98.00
35127;DHT22;21300;52.006;5.798;2023-03-13T14:17:52;13.00;98.00
35127;DHT22;21300;52.006;5.798;2023-03-13T14:22:49;13.00;97.80
35127;DHT22;21300;52.006;5.798;2023-03-13T14:25:14;13.00;98.40
35127;DHT22;21300;52.006;5.798;2023-03-13T14:27:44;13.00;98.40
35127;DHT22;21300;52.006;5.798;2023-03-13T14:30:12;12.90;97.90
35127;DHT22;21300;52.006;5.798;2023-03-13T14:32:38;12.90;98.20
35127;DHT22;21300;52.006;5.798;2023-03-13T14:35:06;12.90;98.60
35127;DHT22;21300;52.006;5.798;2023-03-13T14:37:43;12.90;98.30
35127;DHT22;21300;52.006;5.798;2023-03-13T14:40:26;12.90;98.60
35127;DHT22;21300;52.006;5.798;2023-03-13T14:42:54;12.90;98.90
35127;DHT22;21300;52.006;5.798;2023-03-13T14:47:50;12.90;98.30
35127;DHT22;21300;52.006;5.798;2023-03-13T14:50:16;12.90;98.10
35127;DHT22;21300;52.006;5.798;2023-03-13T14:52:48;12.90;98.10
35127;DHT22;21300;52.006;5.798;2023-03-13T14:57:59;12.90;97.80
35127;DHT22;21300;52.006;5.798;2023-03-13T15:00:38;13.00;98.30
35127;DHT22;21300;52.006;5.798;2023-03-13T15:08:28;13.00;97.70
35127;DHT22;21300;52.006;5.798;2023-03-13T15:10:54;13.00;97.60
35127;DHT22;21300;52.006;5.798;2023-03-13T15:15:59;13.00;97.90
35127;DHT22;21300;52.006;5.798;2023-03-13T15:18:30;13.00;97.90
35127;DHT22;21300;52.006;5.798;2023-03-13T15:21:19;13.00;97.60
35127;DHT22;21300;52.006;5.798;2023-03-13T15:23:49;13.00;97.90
35127;DHT22;21300;52.006;5.798;2023-03-13T15:26:15;13.00;98.00
35127;DHT22;21300;52.006;5.798;2023-03-13T15:28:41;12.90;98.20
35127;DHT22;21300;52.006;5.798;2023-03-13T15:31:10;12.90;98.50
35127;DHT22;21300;52.006;5.798;2023-03-13T15:33:36;12.90;98.40
35127;DHT22;21300;52.006;5.798;2023-03-13T15:36:02;12.90;98.30
35127;DHT22;21300;52.006;5.798;2023-03-13T15:38:28;12.90;98.10
35127;DHT22;21300;52.006;5.798;2023-03-13T15:40:54;12.90;98.40
35127;DHT22;21300;52.006;5.798;2023-03-13T15:43:20;12.90;98.60
35127;DHT22;21300;52.006;5.798;2023-03-13T15:45:48;12.90;98.20
35127;DHT22;21300;52.006;5.798;2023-03-13T15:48:24;12.90;98.70
35127;DHT22;21300;52.006;5.798;2023-03-13T15:50:51;12.90;98.60
35127;DHT22;21300;52.006;5.798;2023-03-13T15:53:23;12.80;98.70
35127;DHT22;21300;52.006;5.798;2023-03-13T15:55:50;12.80;98.50
35127;DHT22;21300;52.006;5.798;2023-03-13T15:58:17;12.80;98.00
35127;DHT22;21300;52.006;5.798;2023-03-13T16:00:43;12.90;98.50
35127;DHT22;21300;52.006;5.798;2023-03-13T16:03:15;12.80;98.40
35127;DHT22;21300;52.006;5.798;2023-03-13T16:05:41;12.80;98.10
35127;DHT22;21300;52.006;5.798;2023-03-13T16:08:12;12.80;98.20
35127;DHT22;21300;52.006;5.798;2023-03-13T16:10:38;12.80;98.70
35127;DHT22;21300;52.006;5.798;2023-03-13T16:13:04;12.90;98.60
35127;DHT22;21300;52.006;5.798;2023-03-13T16:15:29;12.90;98.60
35127;DHT22;21300;52.006;5.798;2023-03-13T16:17:55;12.90;98.60
35127;DHT22;21300;52.006;5.798;2023-03-13T16:20:39;12.90;98.40
35127;DHT22;21300;52.006;5.798;2023-03-13T16:23:05;12.90;98.50
35127;DHT22;21300;52.006;5.798;2023-03-13T16:25:30;12.90;98.50
35127;DHT22;21300;52.006;5.798;2023-03-13T16:27:57;12.90;98.50
35127;DHT22;21300;52.006;5.798;2023-03-13T16:32:48;12.80;99.00
35127;DHT22;21300;52.006;5.798;2023-03-13T16:35:14;12.80;99.30
35127;DHT22;21300;52.006;5.798;2023-03-13T16:37:40;12.80;99.40
35127;DHT22;21300;52.006;5.798;2023-03-13T16:40:16;12.70;99.30
35127;DHT22;21300;52.006;5.798;2023-03-13T16:42:42;12.80;99.30
35127;DHT22;21300;52.006;5.798;2023-03-13T16:45:09;12.80;99.40
35127;DHT22;21300;52.006;5.798;2023-03-13T16:47:34;12.80;99.30
35127;DHT22;21300;52.006;5.798;2023-03-13T16:50:01;12.70;99.40
35127;DHT22;21300;52.006;5.798;2023-03-13T16:52:27;12.70;99.30
35127;DHT22;21300;52.006;5.798;2023-03-13T16:54:53;12.80;99.30
35127;DHT22;21300;52.006;5.798;2023-03-13T16:57:23;12.70;99.40
35127;DHT22;21300;52.006;5.798;2023-03-13T16:59:50;12.70;99.40
35127;DHT22;21300;52.006;5.798;2023-03-13T17:02:17;12.70;99.50
35127;DHT22;21300;52.006;5.798;2023-03-13T17:04:44;12.70;99.60
35127;DHT22;21300;52.006;5.798;2023-03-13T17:07:24;12.80;99.20
35127;DHT22;21300;52.006;5.798;2023-03-13T17:09:51;12.70;98.90
35127;DHT22;21300;52.006;5.798;2023-03-13T17:12:17;12.80;98.40
35127;DHT22;21300;52.006;5.798;2023-03-13T17:14:43;12.80;96.80
35127;DHT22;21300;52.006;5.798;2023-03-13T17:17:20;12.80;95.80
35127;DHT22;21300;52.006;5.798;2023-03-13T17:19:47;12.80;96.60
35127;DHT22;21300;52.006;5.798;2023-03-13T17:22:14;12.70;97.40
35127;DHT22;21300;52.006;5.798;2023-03-13T17:24:40;12.70;96.80
35127;DHT22;21300;52.006;5.798;2023-03-13T17:27:12;12.60;97.70
35127;DHT22;21300;52.006;5.798;2023-03-13T17:29:38;12.60;98.10
35127;DHT22;21300;52.006;5.798;2023-03-13T17:32:03;12.60;98.20
35127;DHT22;21300;52.006;5.798;2023-03-13T17:34:30;12.50;98.30
35127;DHT22;21300;52.006;5.798;2023-03-13T17:36:56;12.50;98.50
35127;DHT22;21300;52.006;5.798;2023-03-13T17:39:24;12.50;98.60
35127;DHT22;21300;52.006;5.798;2023-03-13T17:41:49;12.50;98.60
35127;DHT22;21300;52.006;5.798;2023-03-13T17:44:15;12.50;98.90
35127;DHT22;21300;52.006;5.798;2023-03-13T17:46:46;12.50;98.60
35127;DHT22;21300;52.006;5.798;2023-03-13T17:49:13;12.50;98.70
35127;DHT22;21300;52.006;5.798;2023-03-13T17:51:40;12.50;98.50
35127;DHT22;21300;52.006;5.798;2023-03-13T17:54:07;12.40;98.60
35127;DHT22;21300;52.006;5.798;2023-03-13T17:56:35;12.40;98.90
35127;DHT22;21300;52.006;5.798;2023-03-13T17:59:04;12.40;98.90